sensor_id;sensor_type;location;lat;lon;timestamp;P1;durP1;ratioP1;P2;durP2;ratioP2
19778;SDS011;10049;59.306;18.090;2022-08-19T00:01:17;14.80;;;7.88;;
19778;SDS011;10049;59.306;18.090;2022-08-19T00:03:45;14.45;;;8.35;;
19778;SDS011;10049;59.306;18.090;2022-08-19T00:06:14;15.85;;;8.27;;
19778;SDS011;10049;59.306;18.090;2022-08-19T00:08:42;13.27;;;7.40;;
19778;SDS011;10049;59.306;18.090;2022-08-19T00:11:09;15.05;;;7.95;;
19778;SDS011;10049;59.306;18.090;2022-08-19T00:13:37;19.85;;;8.90;;
19778;SDS011;10049;59.306;18.090;2022-08-19T00:16:05;20.67;;;8.35;;
19778;SDS011;10049;59.306;18.090;2022-08-19T00:18:33;14.20;;;7.97;;
19778;SDS011;10049;59.306;18.090;2022-08-19T00:21:00;15.77;;;8.45;;
19778;SDS011;10049;59.306;18.090;2022-08-19T00:23:29;12.82;;;7.88;;
19778;SDS011;10049;59.306;18.090;2022-08-19T00:25:59;13.07;;;6.63;;
19778;SDS011;10049;59.306;18.090;2022-08-19T00:28:27;16.30;;;8.10;;
19778;SDS011;10049;59.306;18.090;2022-08-19T00:30:55;14.70;;;7.70;;
19778;SDS011;10049;59.306;18.090;2022-08-19T00:33:22;14.35;;;7.80;;
19778;SDS011;10049;59.306;18.090;2022-08-19T00:35:49;14.40;;;8.30;;
19778;SDS011;10049;59.306;18.090;2022-08-19T00:38:17;13.50;;;7.50;;
19778;SDS011;10049;59.306;18.090;2022-08-19T00:40:49;13.57;;;7.82;;
19778;SDS011;10049;59.306;18.090;2022-08-19T00:43:18;12.27;;;7.13;;
19778;SDS011;10049;59.306;18.090;2022-08-19T00:45:47;14.15;;;7.53;;
19778;SDS011;10049;59.306;18.090;2022-08-19T00:48:15;11.13;;;6.22;;
19778;SDS011;10049;59.306;18.090;2022-08-19T00:50:43;11.75;;;7.03;;
19778;SDS011;10049;59.306;18.090;2022-08-19T00:53:11;11.57;;;6.97;;
19778;SDS011;10049;59.306;18.090;2022-08-19T00:55:40;9.82;;;6.68;;
19778;SDS011;10049;59.306;18.090;2022-08-19T00:58:12;14.35;;;7.45;;
19778;SDS011;10049;59.306;18.090;2022-08-19T01:00:40;16.88;;;7.45;;
19778;SDS011;10049;59.306;18.090;2022-08-19T01:03:09;13.68;;;7.40;;
19778;SDS011;10049;59.306;18.090;2022-08-19T01:05:37;12.60;;;6.90;;
19778;SDS011;10049;59.306;18.090;2022-08-19T01:08:06;12.30;;;7.00;;
19778;SDS011;10049;59.306;18.090;2022-08-19T01:10:36;13.18;;;7.40;;
19778;SDS011;10049;59.306;18.090;2022-08-19T01:13:04;11.45;;;6.78;;
19778;SDS011;10049;59.306;18.090;2022-08-19T01:15:33;12.57;;;7.05;;
19778;SDS011;10049;59.306;18.090;2022-08-19T01:18:04;14.90;;;7.63;;
19778;SDS011;10049;59.306;18.090;2022-08-19T01:20:32;12.55;;;7.13;;
19778;SDS011;10049;59.306;18.090;2022-08-19T01:23:02;12.88;;;7.03;;
19778;SDS011;10049;59.306;18.090;2022-08-19T01:25:32;13.65;;;7.57;;
19778;SDS011;10049;59.306;18.090;2022-08-19T01:28:01;14.88;;;7.53;;
19778;SDS011;10049;59.306;18.090;2022-08-19T01:30:31;12.52;;;7.30;;
19778;SDS011;10049;59.306;18.090;2022-08-19T01:32:59;11.80;;;7.88;;
19778;SDS011;10049;59.306;18.090;2022-08-19T01:35:30;13.25;;;7.40;;
19778;SDS011;10049;59.306;18.090;2022-08-19T01:37:58;12.75;;;7.55;;
19778;SDS011;10049;59.306;18.090;2022-08-19T01:40:28;11.30;;;7.32;;
19778;SDS011;10049;59.306;18.090;2022-08-19T01:42:56;13.32;;;7.85;;
19778;SDS011;10049;59.306;18.090;2022-08-19T01:45:25;13.05;;;7.80;;
19778;SDS011;10049;59.306;18.090;2022-08-19T01:47:53;14.20;;;7.32;;
19778;SDS011;10049;59.306;18.090;2022-08-19T01:50:21;11.30;;;7.35;;
19778;SDS011;10049;59.306;18.090;2022-08-19T01:52:48;10.73;;;7.82;;
19778;SDS011;10049;59.306;18.090;2022-08-19T01:55:16;17.70;;;7.90;;
19778;SDS011;10049;59.306;18.090;2022-08-19T01:57:47;12.80;;;8.15;;
19778;SDS011;10049;59.306;18.090;2022-08-19T02:00:15;12.82;;;8.43;;
19778;SDS011;10049;59.306;18.090;2022-08-19T02:02:44;12.80;;;8.23;;
19778;SDS011;10049;59.306;18.090;2022-08-19T02:05:11;19.88;;;8.55;;
19778;SDS011;10049;59.306;18.090;2022-08-19T02:07:39;13.15;;;7.95;;
19778;SDS011;10049;59.306;18.090;2022-08-19T02:10:10;15.77;;;8.80;;
19778;SDS011;10049;59.306;18.090;2022-08-19T02:12:39;13.25;;;7.70;;
19778;SDS011;10049;59.306;18.090;2022-08-19T02:15:08;11.88;;;7.25;;
19778;SDS011;10049;59.306;18.090;2022-08-19T02:17:36;14.68;;;8.02;;
19778;SDS011;10049;59.306;18.090;2022-08-19T02:20:04;13.88;;;7.38;;
19778;SDS011;10049;59.306;18.090;2022-08-19T02:22:32;12.07;;;6.85;;
19778;SDS011;10049;59.306;18.090;2022-08-19T02:25:00;14.20;;;6.80;;
19778;SDS011;10049;59.306;18.090;2022-08-19T02:27:29;11.63;;;6.82;;
19778;SDS011;10049;59.306;18.090;2022-08-19T02:29:57;12.45;;;7.43;;
19778;SDS011;10049;59.306;18.090;2022-08-19T02:32:26;12.98;;;8.23;;
19778;SDS011;10049;59.306;18.090;2022-08-19T02:34:55;13.73;;;7.65;;
19778;SDS011;10049;59.306;18.090;2022-08-19T02:37:22;12.68;;;7.80;;
19778;SDS011;10049;59.306;18.090;2022-08-19T02:40:07;13.32;;;8.02;;
19778;SDS011;10049;59.306;18.090;2022-08-19T02:42:35;12.15;;;7.45;;
19778;SDS011;10049;59.306;18.090;2022-08-19T02:45:02;13.43;;;6.97;;
19778;SDS011;10049;59.306;18.090;2022-08-19T02:47:31;13.18;;;7.43;;
19778;SDS011;10049;59.306;18.090;2022-08-19T02:50:00;12.20;;;7.13;;
19778;SDS011;10049;59.306;18.090;2022-08-19T02:52:27;11.50;;;7.78;;
19778;SDS011;10049;59.306;18.090;2022-08-19T02:54:55;10.13;;;6.72;;
19778;SDS011;10049;59.306;18.090;2022-08-19T02:57:22;16.45;;;7.38;;
19778;SDS011;10049;59.306;18.090;2022-08-19T02:59:50;13.13;;;7.50;;
19778;SDS011;10049;59.306;18.090;2022-08-19T03:02:17;16.38;;;7.78;;
19778;SDS011;10049;59.306;18.090;2022-08-19T03:04:46;11.55;;;7.28;;
19778;SDS011;10049;59.306;18.090;2022-08-19T03:07:14;9.25;;;6.95;;
19778;SDS011;10049;59.306;18.090;2022-08-19T03:09:42;10.88;;;7.00;;
19778;SDS011;10049;59.306;18.090;2022-08-19T03:12:09;11.07;;;7.10;;
19778;SDS011;10049;59.306;18.090;2022-08-19T03:14:37;11.85;;;7.07;;
19778;SDS011;10049;59.306;18.090;2022-08-19T03:17:04;10.15;;;6.90;;
19778;SDS011;10049;59.306;18.090;2022-08-19T03:19:33;12.40;;;7.25;;
19778;SDS011;10049;59.306;18.090;2022-08-19T03:22:02;13.25;;;7.57;;
19778;SDS011;10049;59.306;18.090;2022-08-19T03:24:29;13.20;;;7.57;;
19778;SDS011;10049;59.306;18.090;2022-08-19T03:26:57;15.75;;;7.80;;
19778;SDS011;10049;59.306;18.090;2022-08-19T03:29:25;12.10;;;7.95;;
19778;SDS011;10049;59.306;18.090;2022-08-19T03:31:53;12.45;;;8.25;;
19778;SDS011;10049;59.306;18.090;2022-08-19T03:34:21;11.32;;;7.50;;
19778;SDS011;10049;59.306;18.090;2022-08-19T03:36:51;11.68;;;7.68;;
19778;SDS011;10049;59.306;18.090;2022-08-19T03:39:20;12.10;;;8.00;;
19778;SDS011;10049;59.306;18.090;2022-08-19T03:41:47;14.07;;;9.15;;
19778;SDS011;10049;59.306;18.090;2022-08-19T03:44:20;15.70;;;8.48;;
19778;SDS011;10049;59.306;18.090;2022-08-19T03:46:48;11.57;;;8.30;;
19778;SDS011;10049;59.306;18.090;2022-08-19T03:49:17;15.63;;;8.40;;
19778;SDS011;10049;59.306;18.090;2022-08-19T03:51:44;16.10;;;8.27;;
19778;SDS011;10049;59.306;18.090;2022-08-19T03:54:13;11.95;;;7.57;;
19778;SDS011;10049;59.306;18.090;2022-08-19T03:56:43;14.13;;;7.65;;
19778;SDS011;10049;59.306;18.090;2022-08-19T03:59:12;12.63;;;7.28;;
19778;SDS011;10049;59.306;18.090;2022-08-19T04:01:39;10.27;;;6.80;;
19778;SDS011;10049;59.306;18.090;2022-08-19T04:04:09;11.38;;;6.93;;
19778;SDS011;10049;59.306;18.090;2022-08-19T04:06:37;12.57;;;7.03;;
19778;SDS011;10049;59.306;18.090;2022-08-19T04:09:07;12.52;;;6.90;;
19778;SDS011;10049;59.306;18.090;2022-08-19T04:11:35;12.63;;;6.88;;
19778;SDS011;10049;59.306;18.090;2022-08-19T04:14:06;14.20;;;7.50;;
19778;SDS011;10049;59.306;18.090;2022-08-19T04:16:33;24.08;;;8.50;;
19778;SDS011;10049;59.306;18.090;2022-08-19T04:19:01;10.95;;;7.05;;
19778;SDS011;10049;59.306;18.090;2022-08-19T04:21:30;11.25;;;6.95;;
19778;SDS011;10049;59.306;18.090;2022-08-19T04:23:57;12.02;;;7.50;;
19778;SDS011;10049;59.306;18.090;2022-08-19T04:26:26;9.68;;;6.60;;
19778;SDS011;10049;59.306;18.090;2022-08-19T04:28:54;12.07;;;6.72;;
19778;SDS011;10049;59.306;18.090;2022-08-19T04:31:23;13.90;;;6.63;;
19778;SDS011;10049;59.306;18.090;2022-08-19T04:33:52;13.13;;;6.60;;
19778;SDS011;10049;59.306;18.090;2022-08-19T04:36:22;10.30;;;6.63;;
19778;SDS011;10049;59.306;18.090;2022-08-19T04:38:52;9.77;;;6.22;;
19778;SDS011;10049;59.306;18.090;2022-08-19T04:41:20;9.90;;;6.20;;
19778;SDS011;10049;59.306;18.090;2022-08-19T04:44:05;15.27;;;6.22;;
19778;SDS011;10049;59.306;18.090;2022-08-19T04:46:35;11.52;;;5.95;;
19778;SDS011;10049;59.306;18.090;2022-08-19T04:49:04;8.43;;;6.20;;
19778;SDS011;10049;59.306;18.090;2022-08-19T04:51:32;12.85;;;6.75;;
19778;SDS011;10049;59.306;18.090;2022-08-19T04:54:00;10.93;;;6.43;;
19778;SDS011;10049;59.306;18.090;2022-08-19T04:56:28;11.35;;;6.65;;
19778;SDS011;10049;59.306;18.090;2022-08-19T04:58:56;10.57;;;6.72;;
19778;SDS011;10049;59.306;18.090;2022-08-19T05:01:28;12.55;;;7.22;;
19778;SDS011;10049;59.306;18.090;2022-08-19T05:03:58;10.52;;;6.68;;
19778;SDS011;10049;59.306;18.090;2022-08-19T05:06:26;10.38;;;6.32;;
19778;SDS011;10049;59.306;18.090;2022-08-19T05:08:57;13.80;;;7.43;;
19778;SDS011;10049;59.306;18.090;2022-08-19T05:11:26;8.88;;;6.00;;
19778;SDS011;10049;59.306;18.090;2022-08-19T05:13:54;8.45;;;5.35;;
19778;SDS011;10049;59.306;18.090;2022-08-19T05:16:22;11.55;;;6.65;;
19778;SDS011;10049;59.306;18.090;2022-08-19T05:18:50;9.60;;;6.00;;
19778;SDS011;10049;59.306;18.090;2022-08-19T05:21:38;10.70;;;5.80;;
19778;SDS011;10049;59.306;18.090;2022-08-19T05:24:24;8.10;;;5.53;;
19778;SDS011;10049;59.306;18.090;2022-08-19T05:26:52;10.82;;;6.10;;
19778;SDS011;10049;59.306;18.090;2022-08-19T05:29:21;12.18;;;5.78;;
19778;SDS011;10049;59.306;18.090;2022-08-19T05:31:49;8.85;;;5.78;;
19778;SDS011;10049;59.306;18.090;2022-08-19T05:34:17;8.27;;;5.47;;
19778;SDS011;10049;59.306;18.090;2022-08-19T05:36:51;7.93;;;5.32;;
19778;SDS011;10049;59.306;18.090;2022-08-19T05:39:23;7.80;;;5.10;;
19778;SDS011;10049;59.306;18.090;2022-08-19T05:41:51;9.15;;;5.22;;
19778;SDS011;10049;59.306;18.090;2022-08-19T05:44:19;7.93;;;5.00;;
19778;SDS011;10049;59.306;18.090;2022-08-19T05:46:47;7.30;;;4.65;;
19778;SDS011;10049;59.306;18.090;2022-08-19T05:49:18;8.60;;;4.50;;
19778;SDS011;10049;59.306;18.090;2022-08-19T05:51:48;5.18;;;3.85;;
19778;SDS011;10049;59.306;18.090;2022-08-19T05:54:16;6.43;;;4.25;;
19778;SDS011;10049;59.306;18.090;2022-08-19T05:56:44;5.85;;;4.07;;
19778;SDS011;10049;59.306;18.090;2022-08-19T05:59:14;4.50;;;3.72;;
19778;SDS011;10049;59.306;18.090;2022-08-19T06:01:43;7.30;;;4.35;;
19778;SDS011;10049;59.306;18.090;2022-08-19T06:04:10;5.18;;;3.90;;
19778;SDS011;10049;59.306;18.090;2022-08-19T06:06:38;9.55;;;3.83;;
19778;SDS011;10049;59.306;18.090;2022-08-19T06:09:07;9.07;;;3.95;;
19778;SDS011;10049;59.306;18.090;2022-08-19T06:11:36;10.88;;;3.58;;
19778;SDS011;10049;59.306;18.090;2022-08-19T06:14:06;5.75;;;3.50;;
19778;SDS011;10049;59.306;18.090;2022-08-19T06:16:34;6.72;;;3.30;;
19778;SDS011;10049;59.306;18.090;2022-08-19T06:19:05;6.25;;;3.10;;
19778;SDS011;10049;59.306;18.090;2022-08-19T06:21:33;3.67;;;3.33;;
19778;SDS011;10049;59.306;18.090;2022-08-19T06:24:02;4.90;;;3.50;;
19778;SDS011;10049;59.306;18.090;2022-08-19T06:26:32;8.75;;;3.17;;
19778;SDS011;10049;59.306;18.090;2022-08-19T06:29:00;9.50;;;3.67;;
19778;SDS011;10049;59.306;18.090;2022-08-19T06:31:31;5.57;;;3.20;;
19778;SDS011;10049;59.306;18.090;2022-08-19T06:33:59;7.63;;;3.28;;
19778;SDS011;10049;59.306;18.090;2022-08-19T06:36:31;8.13;;;3.30;;
19778;SDS011;10049;59.306;18.090;2022-08-19T06:39:01;5.60;;;3.00;;
19778;SDS011;10049;59.306;18.090;2022-08-19T06:41:29;4.80;;;2.70;;
19778;SDS011;10049;59.306;18.090;2022-08-19T06:44:06;3.92;;;2.53;;
19778;SDS011;10049;59.306;18.090;2022-08-19T06:46:34;3.42;;;2.40;;
19778;SDS011;10049;59.306;18.090;2022-08-19T06:49:07;7.18;;;2.33;;
19778;SDS011;10049;59.306;18.090;2022-08-19T06:51:43;3.03;;;2.00;;
19778;SDS011;10049;59.306;18.090;2022-08-19T06:54:16;5.30;;;2.15;;
19778;SDS011;10049;59.306;18.090;2022-08-19T06:56:50;4.38;;;2.25;;
19778;SDS011;10049;59.306;18.090;2022-08-19T06:59:42;5.20;;;2.10;;
19778;SDS011;10049;59.306;18.090;2022-08-19T07:02:15;6.78;;;2.28;;
19778;SDS011;10049;59.306;18.090;2022-08-19T07:04:47;7.05;;;1.95;;
19778;SDS011;10049;59.306;18.090;2022-08-19T07:07:17;4.55;;;1.70;;
19778;SDS011;10049;59.306;18.090;2022-08-19T07:09:47;5.47;;;1.90;;
19778;SDS011;10049;59.306;18.090;2022-08-19T07:12:15;4.35;;;1.70;;
19778;SDS011;10049;59.306;18.090;2022-08-19T07:14:51;3.88;;;1.85;;
19778;SDS011;10049;59.306;18.090;2022-08-19T07:17:37;4.80;;;1.85;;
19778;SDS011;10049;59.306;18.090;2022-08-19T07:20:15;3.60;;;1.60;;
19778;SDS011;10049;59.306;18.090;2022-08-19T07:23:13;5.20;;;1.60;;
19778;SDS011;10049;59.306;18.090;2022-08-19T07:26:04;7.82;;;1.90;;
19778;SDS011;10049;59.306;18.090;2022-08-19T07:28:33;6.90;;;1.90;;
19778;SDS011;10049;59.306;18.090;2022-08-19T07:31:07;8.43;;;2.00;;
19778;SDS011;10049;59.306;18.090;2022-08-19T07:33:47;4.55;;;2.00;;
19778;SDS011;10049;59.306;18.090;2022-08-19T07:36:20;4.00;;;1.85;;
19778;SDS011;10049;59.306;18.090;2022-08-19T07:39:13;3.08;;;1.67;;
19778;SDS011;10049;59.306;18.090;2022-08-19T07:42:07;7.15;;;1.88;;
19778;SDS011;10049;59.306;18.090;2022-08-19T07:47:31;4.53;;;1.80;;
19778;SDS011;10049;59.306;18.090;2022-08-19T07:50:06;3.97;;;1.75;;
19778;SDS011;10049;59.306;18.090;2022-08-19T07:52:37;6.30;;;1.70;;
19778;SDS011;10049;59.306;18.090;2022-08-19T07:55:09;4.63;;;1.90;;
19778;SDS011;10049;59.306;18.090;2022-08-19T08:01:19;5.93;;;1.60;;
19778;SDS011;10049;59.306;18.090;2022-08-19T08:04:00;4.00;;;1.58;;
19778;SDS011;10049;59.306;18.090;2022-08-19T08:06:45;4.40;;;1.50;;
19778;SDS011;10049;59.306;18.090;2022-08-19T08:09:31;4.70;;;1.40;;
19778;SDS011;10049;59.306;18.090;2022-08-19T08:12:00;4.35;;;1.27;;
19778;SDS011;10049;59.306;18.090;2022-08-19T08:14:41;3.83;;;1.75;;
19778;SDS011;10049;59.306;18.090;2022-08-19T08:17:19;4.20;;;1.63;;
19778;SDS011;10049;59.306;18.090;2022-08-19T08:19:57;3.97;;;1.65;;
19778;SDS011;10049;59.306;18.090;2022-08-19T08:22:27;3.72;;;1.30;;
19778;SDS011;10049;59.306;18.090;2022-08-19T08:25:13;5.60;;;1.40;;
19778;SDS011;10049;59.306;18.090;2022-08-19T08:27:57;4.85;;;1.60;;
19778;SDS011;10049;59.306;18.090;2022-08-19T08:31:00;3.83;;;1.70;;
19778;SDS011;10049;59.306;18.090;2022-08-19T08:36:17;4.43;;;1.52;;
19778;SDS011;10049;59.306;18.090;2022-08-19T08:38:52;6.63;;;1.75;;
19778;SDS011;10049;59.306;18.090;2022-08-19T08:41:34;2.63;;;1.23;;
19778;SDS011;10049;59.306;18.090;2022-08-19T08:44:11;4.00;;;1.50;;
19778;SDS011;10049;59.306;18.090;2022-08-19T08:46:48;5.05;;;1.60;;
19778;SDS011;10049;59.306;18.090;2022-08-19T08:49:37;3.88;;;1.67;;
19778;SDS011;10049;59.306;18.090;2022-08-19T08:52:18;6.47;;;1.65;;
19778;SDS011;10049;59.306;18.090;2022-08-19T08:55:10;3.08;;;1.30;;
19778;SDS011;10049;59.306;18.090;2022-08-19T08:57:43;2.85;;;1.48;;
19778;SDS011;10049;59.306;18.090;2022-08-19T09:00:22;8.25;;;1.48;;
19778;SDS011;10049;59.306;18.090;2022-08-19T09:02:53;4.75;;;1.60;;
19778;SDS011;10049;59.306;18.090;2022-08-19T09:08:15;4.20;;;1.30;;
19778;SDS011;10049;59.306;18.090;2022-08-19T09:10:49;8.85;;;1.40;;
19778;SDS011;10049;59.306;18.090;2022-08-19T09:13:53;4.95;;;1.40;;
19778;SDS011;10049;59.306;18.090;2022-08-19T09:16:58;6.30;;;1.65;;
19778;SDS011;10049;59.306;18.090;2022-08-19T09:19:47;6.35;;;1.60;;
19778;SDS011;10049;59.306;18.090;2022-08-19T09:22:35;4.85;;;1.35;;
19778;SDS011;10049;59.306;18.090;2022-08-19T09:25:08;6.28;;;1.45;;
19778;SDS011;10049;59.306;18.090;2022-08-19T09:27:37;4.30;;;1.20;;
19778;SDS011;10049;59.306;18.090;2022-08-19T09:30:05;3.75;;;1.48;;
19778;SDS011;10049;59.306;18.090;2022-08-19T09:32:33;4.32;;;1.40;;
19778;SDS011;10049;59.306;18.090;2022-08-19T09:35:03;7.45;;;1.60;;
19778;SDS011;10049;59.306;18.090;2022-08-19T09:37:31;3.95;;;1.40;;
19778;SDS011;10049;59.306;18.090;2022-08-19T09:39:59;2.70;;;1.30;;
19778;SDS011;10049;59.306;18.090;2022-08-19T09:42:35;7.32;;;1.40;;
19778;SDS011;10049;59.306;18.090;2022-08-19T09:45:26;6.70;;;1.70;;
19778;SDS011;10049;59.306;18.090;2022-08-19T09:47:59;5.45;;;1.30;;
19778;SDS011;10049;59.306;18.090;2022-08-19T09:57:03;2.13;;;1.23;;
19778;SDS011;10049;59.306;18.090;2022-08-19T10:05:28;2.88;;;1.48;;
19778;SDS011;10049;59.306;18.090;2022-08-19T10:08:13;3.42;;;1.30;;
19778;SDS011;10049;59.306;18.090;2022-08-19T10:14:21;8.40;;;1.70;;
19778;SDS011;10049;59.306;18.090;2022-08-19T10:17:01;4.13;;;1.73;;
19778;SDS011;10049;59.306;18.090;2022-08-19T10:20:09;3.17;;;1.45;;
19778;SDS011;10049;59.306;18.090;2022-08-19T10:22:40;2.00;;;1.42;;
19778;SDS011;10049;59.306;18.090;2022-08-19T10:25:24;3.78;;;1.55;;
19778;SDS011;10049;59.306;18.090;2022-08-19T10:27:52;6.22;;;1.65;;
19778;SDS011;10049;59.306;18.090;2022-08-19T10:30:22;3.38;;;1.50;;
19778;SDS011;10049;59.306;18.090;2022-08-19T10:32:59;3.13;;;1.60;;
19778;SDS011;10049;59.306;18.090;2022-08-19T10:35:43;3.13;;;1.75;;
19778;SDS011;10049;59.306;18.090;2022-08-19T10:38:19;4.35;;;1.60;;
19778;SDS011;10049;59.306;18.090;2022-08-19T10:41:10;2.38;;;1.33;;
19778;SDS011;10049;59.306;18.090;2022-08-19T10:43:57;3.47;;;1.48;;
19778;SDS011;10049;59.306;18.090;2022-08-19T10:46:46;3.90;;;1.58;;
19778;SDS011;10049;59.306;18.090;2022-08-19T10:49:18;5.15;;;1.70;;
19778;SDS011;10049;59.306;18.090;2022-08-19T10:51:45;6.45;;;1.55;;
19778;SDS011;10049;59.306;18.090;2022-08-19T10:54:36;5.95;;;1.60;;
19778;SDS011;10049;59.306;18.090;2022-08-19T10:57:20;5.13;;;1.45;;
19778;SDS011;10049;59.306;18.090;2022-08-19T11:00:17;2.10;;;1.50;;
19778;SDS011;10049;59.306;18.090;2022-08-19T11:05:33;7.65;;;1.48;;
19778;SDS011;10049;59.306;18.090;2022-08-19T11:08:18;5.13;;;1.50;;
19778;SDS011;10049;59.306;18.090;2022-08-19T11:10:58;2.70;;;1.45;;
19778;SDS011;10049;59.306;18.090;2022-08-19T11:13:34;4.07;;;1.67;;
19778;SDS011;10049;59.306;18.090;2022-08-19T11:16:05;3.15;;;1.52;;
19778;SDS011;10049;59.306;18.090;2022-08-19T11:18:39;3.95;;;1.42;;
19778;SDS011;10049;59.306;18.090;2022-08-19T11:21:09;3.00;;;1.63;;
19778;SDS011;10049;59.306;18.090;2022-08-19T11:23:42;4.32;;;1.70;;
19778;SDS011;10049;59.306;18.090;2022-08-19T11:26:23;5.07;;;1.40;;
19778;SDS011;10049;59.306;18.090;2022-08-19T11:29:10;7.35;;;1.67;;
19778;SDS011;10049;59.306;18.090;2022-08-19T11:31:42;6.30;;;1.70;;
19778;SDS011;10049;59.306;18.090;2022-08-19T11:34:21;4.28;;;1.65;;
19778;SDS011;10049;59.306;18.090;2022-08-19T11:40:04;4.53;;;1.55;;
19778;SDS011;10049;59.306;18.090;2022-08-19T11:45:49;6.07;;;1.80;;
19778;SDS011;10049;59.306;18.090;2022-08-19T11:48:16;4.32;;;1.40;;
19778;SDS011;10049;59.306;18.090;2022-08-19T11:51:11;2.10;;;1.45;;
19778;SDS011;10049;59.306;18.090;2022-08-19T11:56:45;2.92;;;1.50;;
19778;SDS011;10049;59.306;18.090;2022-08-19T11:59:14;2.70;;;1.50;;
19778;SDS011;10049;59.306;18.090;2022-08-19T12:01:52;5.13;;;1.40;;
19778;SDS011;10049;59.306;18.090;2022-08-19T12:04:20;8.20;;;1.45;;
19778;SDS011;10049;59.306;18.090;2022-08-19T12:06:48;3.15;;;1.38;;
19778;SDS011;10049;59.306;18.090;2022-08-19T12:09:16;3.92;;;1.35;;
19778;SDS011;10049;59.306;18.090;2022-08-19T12:11:44;3.75;;;1.40;;
19778;SDS011;10049;59.306;18.090;2022-08-19T12:14:34;4.93;;;1.50;;
19778;SDS011;10049;59.306;18.090;2022-08-19T12:17:31;7.82;;;1.40;;
19778;SDS011;10049;59.306;18.090;2022-08-19T12:20:02;4.78;;;1.27;;
19778;SDS011;10049;59.306;18.090;2022-08-19T12:22:58;3.08;;;1.52;;
19778;SDS011;10049;59.306;18.090;2022-08-19T12:25:26;5.88;;;1.30;;
19778;SDS011;10049;59.306;18.090;2022-08-19T12:27:56;3.15;;;1.30;;
19778;SDS011;10049;59.306;18.090;2022-08-19T12:30:37;6.85;;;1.30;;
19778;SDS011;10049;59.306;18.090;2022-08-19T12:33:10;4.70;;;1.55;;
19778;SDS011;10049;59.306;18.090;2022-08-19T12:35:51;4.78;;;1.80;;
19778;SDS011;10049;59.306;18.090;2022-08-19T12:38:34;4.63;;;1.48;;
19778;SDS011;10049;59.306;18.090;2022-08-19T12:44:01;1.65;;;1.23;;
19778;SDS011;10049;59.306;18.090;2022-08-19T12:46:37;3.13;;;1.42;;
19778;SDS011;10049;59.306;18.090;2022-08-19T12:49:23;5.78;;;1.77;;
19778;SDS011;10049;59.306;18.090;2022-08-19T12:51:50;5.32;;;1.40;;
19778;SDS011;10049;59.306;18.090;2022-08-19T12:54:41;1.75;;;1.30;;
19778;SDS011;10049;59.306;18.090;2022-08-19T12:57:11;7.93;;;1.45;;
19778;SDS011;10049;59.306;18.090;2022-08-19T12:59:53;3.50;;;1.45;;
19778;SDS011;10049;59.306;18.090;2022-08-19T13:02:23;5.28;;;1.88;;
19778;SDS011;10049;59.306;18.090;2022-08-19T13:04:53;2.20;;;1.40;;
19778;SDS011;10049;59.306;18.090;2022-08-19T13:07:24;7.35;;;1.65;;
19778;SDS011;10049;59.306;18.090;2022-08-19T13:13:09;5.60;;;1.75;;
19778;SDS011;10049;59.306;18.090;2022-08-19T13:15:59;5.32;;;1.60;;
19778;SDS011;10049;59.306;18.090;2022-08-19T13:21:27;5.80;;;1.45;;
19778;SDS011;10049;59.306;18.090;2022-08-19T13:23:58;3.85;;;1.60;;
19778;SDS011;10049;59.306;18.090;2022-08-19T13:26:26;6.45;;;1.60;;
19778;SDS011;10049;59.306;18.090;2022-08-19T13:32:12;4.18;;;1.60;;
19778;SDS011;10049;59.306;18.090;2022-08-19T13:38:03;6.65;;;1.63;;
19778;SDS011;10049;59.306;18.090;2022-08-19T13:40:41;3.88;;;1.83;;
19778;SDS011;10049;59.306;18.090;2022-08-19T13:46:18;4.93;;;1.63;;
19778;SDS011;10049;59.306;18.090;2022-08-19T13:51:48;5.60;;;2.00;;
19778;SDS011;10049;59.306;18.090;2022-08-19T13:54:28;7.05;;;1.73;;
19778;SDS011;10049;59.306;18.090;2022-08-19T13:57:29;4.55;;;1.75;;
19778;SDS011;10049;59.306;18.090;2022-08-19T14:00:14;6.70;;;1.88;;
19778;SDS011;10049;59.306;18.090;2022-08-19T14:08:42;9.77;;;1.80;;
19778;SDS011;10049;59.306;18.090;2022-08-19T14:11:31;4.28;;;1.70;;
19778;SDS011;10049;59.306;18.090;2022-08-19T14:14:14;3.13;;;1.70;;
19778;SDS011;10049;59.306;18.090;2022-08-19T14:16:46;6.35;;;2.00;;
19778;SDS011;10049;59.306;18.090;2022-08-19T14:19:32;4.13;;;1.85;;
19778;SDS011;10049;59.306;18.090;2022-08-19T14:22:00;5.47;;;1.90;;
19778;SDS011;10049;59.306;18.090;2022-08-19T14:27:58;4.95;;;1.60;;
19778;SDS011;10049;59.306;18.090;2022-08-19T14:30:36;6.78;;;1.90;;
19778;SDS011;10049;59.306;18.090;2022-08-19T14:33:13;3.55;;;1.75;;
19778;SDS011;10049;59.306;18.090;2022-08-19T14:35:44;5.25;;;1.83;;
19778;SDS011;10049;59.306;18.090;2022-08-19T14:38:17;3.72;;;1.60;;
19778;SDS011;10049;59.306;18.090;2022-08-19T14:43:54;4.88;;;1.88;;
19778;SDS011;10049;59.306;18.090;2022-08-19T14:46:22;5.15;;;1.80;;
19778;SDS011;10049;59.306;18.090;2022-08-19T14:48:53;4.93;;;1.73;;
19778;SDS011;10049;59.306;18.090;2022-08-19T14:51:44;4.32;;;1.70;;
19778;SDS011;10049;59.306;18.090;2022-08-19T14:54:18;9.10;;;2.30;;
19778;SDS011;10049;59.306;18.090;2022-08-19T14:57:02;6.80;;;1.90;;
19778;SDS011;10049;59.306;18.090;2022-08-19T14:59:32;5.30;;;2.03;;
19778;SDS011;10049;59.306;18.090;2022-08-19T15:02:01;4.95;;;2.05;;
19778;SDS011;10049;59.306;18.090;2022-08-19T15:04:32;9.68;;;2.33;;
19778;SDS011;10049;59.306;18.090;2022-08-19T15:07:16;3.58;;;2.00;;
19778;SDS011;10049;59.306;18.090;2022-08-19T15:09:46;7.13;;;1.90;;
19778;SDS011;10049;59.306;18.090;2022-08-19T15:12:22;7.60;;;2.00;;
19778;SDS011;10049;59.306;18.090;2022-08-19T15:15:00;6.10;;;2.05;;
19778;SDS011;10049;59.306;18.090;2022-08-19T15:17:36;9.77;;;1.90;;
19778;SDS011;10049;59.306;18.090;2022-08-19T15:20:10;3.00;;;1.67;;
19778;SDS011;10049;59.306;18.090;2022-08-19T15:22:48;3.50;;;1.63;;
19778;SDS011;10049;59.306;18.090;2022-08-19T15:25:22;9.15;;;2.28;;
19778;SDS011;10049;59.306;18.090;2022-08-19T15:27:50;6.20;;;1.90;;
19778;SDS011;10049;59.306;18.090;2022-08-19T15:30:23;5.28;;;1.75;;
19778;SDS011;10049;59.306;18.090;2022-08-19T15:32:59;5.70;;;1.75;;
19778;SDS011;10049;59.306;18.090;2022-08-19T15:35:27;4.63;;;2.13;;
19778;SDS011;10049;59.306;18.090;2022-08-19T15:37:54;8.40;;;2.00;;
19778;SDS011;10049;59.306;18.090;2022-08-19T15:40:23;5.70;;;2.00;;
19778;SDS011;10049;59.306;18.090;2022-08-19T15:42:54;6.50;;;2.15;;
19778;SDS011;10049;59.306;18.090;2022-08-19T15:45:32;6.78;;;1.90;;
19778;SDS011;10049;59.306;18.090;2022-08-19T15:48:00;7.28;;;1.98;;
19778;SDS011;10049;59.306;18.090;2022-08-19T15:53:18;5.43;;;1.88;;
19778;SDS011;10049;59.306;18.090;2022-08-19T15:55:50;8.65;;;2.30;;
19778;SDS011;10049;59.306;18.090;2022-08-19T15:58:23;4.60;;;2.28;;
19778;SDS011;10049;59.306;18.090;2022-08-19T16:04:09;12.50;;;2.50;;
19778;SDS011;10049;59.306;18.090;2022-08-19T16:06:55;4.72;;;2.45;;
19778;SDS011;10049;59.306;18.090;2022-08-19T16:09:39;4.10;;;2.20;;
19778;SDS011;10049;59.306;18.090;2022-08-19T16:12:08;5.65;;;2.10;;
19778;SDS011;10049;59.306;18.090;2022-08-19T16:14:59;6.18;;;2.13;;
19778;SDS011;10049;59.306;18.090;2022-08-19T16:17:28;6.10;;;2.08;;
19778;SDS011;10049;59.306;18.090;2022-08-19T16:20:12;6.20;;;2.17;;
19778;SDS011;10049;59.306;18.090;2022-08-19T16:22:47;7.78;;;2.60;;
19778;SDS011;10049;59.306;18.090;2022-08-19T16:25:15;6.13;;;2.40;;
19778;SDS011;10049;59.306;18.090;2022-08-19T16:27:42;9.15;;;2.28;;